KTBN/TBN METAR and TAF weather

Enter ICAO airport designator
Station Type Date Time Source
KTBN METAR 2019/05/20 09:56 UTC NOAA

KTBN 200956Z AUTO 00000KT 10SM CLR 10/09 A3004 RMK AO2 SLP171 T01020088 $


Station Type Date Time Source
KTBN Decoded METAR 2019/05/20 09:56 UTC NOAA

Fort Leonard Wood, MO, United States (KTBN) 37-44N 092-08W
May 20, 2019 - 05:56 AM EDT / 2019.05.20 0956 UTC
Wind: Calm:0
Visibility: 10 mile(s):0
Sky conditions: clear
Temperature: 50.4 F (10.2 C)
Dew Point: 47.8 F (8.8 C)
Relative Humidity: 91%
Pressure (altimeter): 30.04 in. Hg (1017 hPa)
ob: KTBN 200956Z AUTO 00000KT 10SM CLR 10/09 A3004 RMK AO2 SLP171 T01020088
cycle: 10

Station Type Date Time Source
KTBN TAF UTC NOAA

Error!

Example: see airport list